sensor_id;sensor_type;location;lat;lon;timestamp;pressure;altitude;pressure_sealevel;temperature;humidity
75063;BME280;63981;51.052;13.754;2022-11-21T00:00:23;99299.16;;;-1.64;89.10
75063;BME280;63981;51.052;13.754;2022-11-21T00:01:26;99351.94;;;-1.43;90.24
75063;BME280;63981;51.052;13.754;2022-11-21T00:02:27;99354.63;;;-1.48;89.54
75063;BME280;63981;51.052;13.754;2022-11-21T00:03:28;99345.09;;;-1.45;90.27
75063;BME280;63981;51.052;13.754;2022-11-21T00:04:29;99346.97;;;-1.51;90.59
75063;BME280;63981;51.052;13.754;2022-11-21T00:05:31;99334.69;;;-1.42;90.43
75063;BME280;63981;51.052;13.754;2022-11-21T00:06:32;99293.09;;;-1.63;90.31
75063;BME280;63981;51.052;13.754;2022-11-21T00:07:32;99320.09;;;-1.45;90.46
75063;BME280;63981;51.052;13.754;2022-11-21T00:08:33;99337.78;;;-1.33;89.83
75063;BME280;63981;51.052;13.754;2022-11-21T00:09:34;99332.38;;;-1.25;90.58
75063;BME280;63981;51.052;13.754;2022-11-21T00:10:37;99335.53;;;-1.15;88.94
75063;BME280;63981;51.052;13.754;2022-11-21T00:11:38;99259.91;;;-1.49;88.88
75063;BME280;63981;51.052;13.754;2022-11-21T00:12:39;99302.91;;;-1.46;89.81
75063;BME280;63981;51.052;13.754;2022-11-21T00:13:40;99312.72;;;-1.31;89.57
75063;BME280;63981;51.052;13.754;2022-11-21T00:14:40;99307.09;;;-1.42;89.31
75063;BME280;63981;51.052;13.754;2022-11-21T00:15:41;99310.97;;;-1.29;90.04
75063;BME280;63981;51.052;13.754;2022-11-21T00:16:44;99247.78;;;-1.46;87.98
75063;BME280;63981;51.052;13.754;2022-11-21T00:17:45;99300.06;;;-1.12;88.03
75063;BME280;63981;51.052;13.754;2022-11-21T00:18:45;99299.47;;;-0.95;88.41
75063;BME280;63981;51.052;13.754;2022-11-21T00:19:46;99301.94;;;-0.92;87.47
75063;BME280;63981;51.052;13.754;2022-11-21T00:20:47;99296.47;;;-1.08;87.21
75063;BME280;63981;51.052;13.754;2022-11-21T00:21:47;99269.00;;;-1.37;88.56
75063;BME280;63981;51.052;13.754;2022-11-21T00:22:48;99292.47;;;-1.16;89.55
75063;BME280;63981;51.052;13.754;2022-11-21T00:23:51;99253.72;;;-1.43;89.02
75063;BME280;63981;51.052;13.754;2022-11-21T00:24:52;99287.91;;;-1.10;87.80
75063;BME280;63981;51.052;13.754;2022-11-21T00:25:53;99285.56;;;-0.91;88.39
75063;BME280;63981;51.052;13.754;2022-11-21T00:26:53;99284.25;;;-0.79;86.60
75063;BME280;63981;51.052;13.754;2022-11-21T00:27:54;99270.25;;;-0.97;86.88
75063;BME280;63981;51.052;13.754;2022-11-21T00:28:55;99272.00;;;-0.98;88.01
75063;BME280;63981;51.052;13.754;2022-11-21T00:29:55;99268.00;;;-0.83;86.22
75063;BME280;63981;51.052;13.754;2022-11-21T00:30:56;99263.94;;;-0.65;85.67
75063;BME280;63981;51.052;13.754;2022-11-21T00:31:56;99314.63;;;-0.60;86.23
75063;BME280;63981;51.052;13.754;2022-11-21T00:32:57;99284.34;;;-0.57;86.25
75063;BME280;63981;51.052;13.754;2022-11-21T00:33:58;99240.78;;;-0.93;84.97
75063;BME280;63981;51.052;13.754;2022-11-21T00:34:59;99204.16;;;-1.29;87.50
75063;BME280;63981;51.052;13.754;2022-11-21T00:36:06;99214.44;;;-1.28;87.21
75063;BME280;63981;51.052;13.754;2022-11-21T00:37:08;99260.06;;;-1.02;86.89
75063;BME280;63981;51.052;13.754;2022-11-21T00:38:08;99255.50;;;-0.95;85.77
75063;BME280;63981;51.052;13.754;2022-11-21T00:39:09;99256.72;;;-1.05;85.74
75063;BME280;63981;51.052;13.754;2022-11-21T00:40:10;99230.38;;;-1.15;85.94
75063;BME280;63981;51.052;13.754;2022-11-21T00:41:11;99248.28;;;-1.10;87.05
75063;BME280;63981;51.052;13.754;2022-11-21T00:42:11;99240.94;;;-0.98;87.48
75063;BME280;63981;51.052;13.754;2022-11-21T00:43:12;99242.53;;;-0.94;86.08
75063;BME280;63981;51.052;13.754;2022-11-21T00:44:13;99163.81;;;-1.35;87.17
75063;BME280;63981;51.052;13.754;2022-11-21T00:45:14;99237.47;;;-0.97;87.24
75063;BME280;63981;51.052;13.754;2022-11-21T00:46:14;99234.88;;;-0.97;87.14
75063;BME280;63981;51.052;13.754;2022-11-21T00:47:15;99251.66;;;-0.83;86.97
75063;BME280;63981;51.052;13.754;2022-11-21T00:48:16;99239.16;;;-0.96;87.14
75063;BME280;63981;51.052;13.754;2022-11-21T00:49:16;99230.03;;;-1.06;86.58
75063;BME280;63981;51.052;13.754;2022-11-21T00:50:17;99226.94;;;-0.92;87.05
75063;BME280;63981;51.052;13.754;2022-11-21T00:51:18;99218.47;;;-0.96;87.01
75063;BME280;63981;51.052;13.754;2022-11-21T00:52:18;99223.75;;;-0.99;87.53
75063;BME280;63981;51.052;13.754;2022-11-21T00:53:19;99215.72;;;-0.91;86.07
75063;BME280;63981;51.052;13.754;2022-11-21T00:54:20;99212.06;;;-0.85;86.22
75063;BME280;63981;51.052;13.754;2022-11-21T00:55:21;99217.34;;;-0.88;86.43
75063;BME280;63981;51.052;13.754;2022-11-21T00:56:21;99187.34;;;-1.17;86.72
75063;BME280;63981;51.052;13.754;2022-11-21T00:57:22;99213.03;;;-0.88;85.63
75063;BME280;63981;51.052;13.754;2022-11-21T00:58:23;99143.84;;;-1.30;86.63
75063;BME280;63981;51.052;13.754;2022-11-21T00:59:23;99197.44;;;-0.86;87.00
75063;BME280;63981;51.052;13.754;2022-11-21T01:00:24;99199.06;;;-0.84;85.92
75063;BME280;63981;51.052;13.754;2022-11-21T01:01:25;99210.19;;;-0.82;85.83
75063;BME280;63981;51.052;13.754;2022-11-21T01:02:25;99168.81;;;-1.05;86.59
75063;BME280;63981;51.052;13.754;2022-11-21T01:03:26;99191.56;;;-0.92;86.72
75063;BME280;63981;51.052;13.754;2022-11-21T01:04:31;99144.53;;;-1.01;86.99
75063;BME280;63981;51.052;13.754;2022-11-21T01:05:32;99183.50;;;-0.82;86.29
75063;BME280;63981;51.052;13.754;2022-11-21T01:06:33;99193.97;;;-0.85;86.05
75063;BME280;63981;51.052;13.754;2022-11-21T01:07:33;99188.16;;;-0.92;87.11
75063;BME280;63981;51.052;13.754;2022-11-21T01:08:36;99187.22;;;-0.90;85.68
75063;BME280;63981;51.052;13.754;2022-11-21T01:09:37;99176.56;;;-0.82;86.94
75063;BME280;63981;51.052;13.754;2022-11-21T01:10:38;99128.06;;;-0.99;86.49
75063;BME280;63981;51.052;13.754;2022-11-21T01:11:39;99168.22;;;-0.67;86.24
75063;BME280;63981;51.052;13.754;2022-11-21T01:12:40;99105.28;;;-1.12;86.59
75063;BME280;63981;51.052;13.754;2022-11-21T01:13:40;99161.69;;;-0.75;86.92
75063;BME280;63981;51.052;13.754;2022-11-21T01:14:41;99155.47;;;-0.71;87.18
75063;BME280;63981;51.052;13.754;2022-11-21T01:15:42;99105.63;;;-0.98;86.03
75063;BME280;63981;51.052;13.754;2022-11-21T01:16:43;99154.69;;;-0.73;87.17
75063;BME280;63981;51.052;13.754;2022-11-21T01:17:43;99151.28;;;-0.74;86.81
75063;BME280;63981;51.052;13.754;2022-11-21T01:18:44;99036.56;;;-1.41;86.62
75063;BME280;63981;51.052;13.754;2022-11-21T01:19:45;99145.13;;;-0.71;85.42
75063;BME280;63981;51.052;13.754;2022-11-21T01:20:45;99077.06;;;-1.19;86.95
75063;BME280;63981;51.052;13.754;2022-11-21T01:21:46;99140.97;;;-0.75;86.99
75063;BME280;63981;51.052;13.754;2022-11-21T01:22:47;99148.81;;;-0.77;86.37
75063;BME280;63981;51.052;13.754;2022-11-21T01:23:47;99139.00;;;-0.69;86.03
75063;BME280;63981;51.052;13.754;2022-11-21T01:24:48;99143.38;;;-0.71;86.42
75063;BME280;63981;51.052;13.754;2022-11-21T01:25:49;99143.19;;;-0.66;85.71
75063;BME280;63981;51.052;13.754;2022-11-21T01:26:49;99144.78;;;-0.62;86.29
75063;BME280;63981;51.052;13.754;2022-11-21T01:27:50;99130.81;;;-0.58;86.75
75063;BME280;63981;51.052;13.754;2022-11-21T01:28:51;99138.31;;;-0.50;86.91
75063;BME280;63981;51.052;13.754;2022-11-21T01:29:52;99136.84;;;-0.57;86.74
75063;BME280;63981;51.052;13.754;2022-11-21T01:30:53;99101.88;;;-0.90;87.46
75063;BME280;63981;51.052;13.754;2022-11-21T01:31:53;99132.69;;;-0.62;86.23
75063;BME280;63981;51.052;13.754;2022-11-21T01:32:54;99130.94;;;-0.61;87.01
75063;BME280;63981;51.052;13.754;2022-11-21T01:33:56;99131.59;;;-0.56;87.31
75063;BME280;63981;51.052;13.754;2022-11-21T01:34:57;99126.22;;;-0.50;86.48
75063;BME280;63981;51.052;13.754;2022-11-21T01:36:05;99096.22;;;-0.77;85.92
75063;BME280;63981;51.052;13.754;2022-11-21T01:37:06;99124.53;;;-0.51;85.71
75063;BME280;63981;51.052;13.754;2022-11-21T01:38:07;99120.56;;;-0.38;86.60
75063;BME280;63981;51.052;13.754;2022-11-21T01:39:09;99126.78;;;-0.43;86.18
75063;BME280;63981;51.052;13.754;2022-11-21T01:40:11;99132.53;;;-0.35;85.99
75063;BME280;63981;51.052;13.754;2022-11-21T01:41:14;99096.06;;;-0.51;85.00
75063;BME280;63981;51.052;13.754;2022-11-21T01:42:15;99129.81;;;-0.32;85.17
75063;BME280;63981;51.052;13.754;2022-11-21T01:43:16;99128.19;;;-0.35;86.05
75063;BME280;63981;51.052;13.754;2022-11-21T01:44:20;99128.06;;;-0.32;85.33
75063;BME280;63981;51.052;13.754;2022-11-21T01:45:56;99132.41;;;-0.32;86.86
75063;BME280;63981;51.052;13.754;2022-11-21T01:46:57;99112.16;;;-0.22;85.58
75063;BME280;63981;51.052;13.754;2022-11-21T01:47:58;99115.72;;;-0.25;86.52
75063;BME280;63981;51.052;13.754;2022-11-21T01:49:06;99099.78;;;-0.36;85.44
75063;BME280;63981;51.052;13.754;2022-11-21T01:50:07;99115.28;;;-0.14;85.07
75063;BME280;63981;51.052;13.754;2022-11-21T01:53:21;99117.84;;;-0.13;85.78
75063;BME280;63981;51.052;13.754;2022-11-21T01:54:27;99117.84;;;-0.13;86.51
75063;BME280;63981;51.052;13.754;2022-11-21T01:55:29;99115.81;;;-0.06;85.96
75063;BME280;63981;51.052;13.754;2022-11-21T01:56:34;99114.84;;;-0.04;86.29
75063;BME280;63981;51.052;13.754;2022-11-21T01:57:40;99078.63;;;-0.25;85.35
75063;BME280;63981;51.052;13.754;2022-11-21T01:58:44;99075.84;;;-0.21;86.02
75063;BME280;63981;51.052;13.754;2022-11-21T02:00:50;99104.59;;;0.15;85.01
75063;BME280;63981;51.052;13.754;2022-11-21T02:01:53;99051.50;;;-0.17;85.81
75063;BME280;63981;51.052;13.754;2022-11-21T02:02:58;99086.97;;;0.03;86.05
75063;BME280;63981;51.052;13.754;2022-11-21T02:04:02;98929.75;;;-0.76;85.27
75063;BME280;63981;51.052;13.754;2022-11-21T02:05:08;99061.28;;;-0.03;85.27
75063;BME280;63981;51.052;13.754;2022-11-21T02:06:11;99090.44;;;0.22;85.46
75063;BME280;63981;51.052;13.754;2022-11-21T02:07:13;99111.03;;;0.25;85.85
75063;BME280;63981;51.052;13.754;2022-11-21T02:08:19;99043.00;;;0.02;85.50
75063;BME280;63981;51.052;13.754;2022-11-21T02:09:20;99031.19;;;-0.06;84.77
75063;BME280;63981;51.052;13.754;2022-11-21T02:10:22;99036.56;;;0.10;84.84
75063;BME280;63981;51.052;13.754;2022-11-21T02:11:29;99041.88;;;0.07;84.51
75063;BME280;63981;51.052;13.754;2022-11-21T02:12:52;99084.50;;;0.41;85.44
75063;BME280;63981;51.052;13.754;2022-11-21T02:13:53;99086.19;;;0.42;84.99
75063;BME280;63981;51.052;13.754;2022-11-21T02:14:54;99030.94;;;0.01;85.11
75063;BME280;63981;51.052;13.754;2022-11-21T02:15:56;99078.34;;;0.43;86.04
75063;BME280;63981;51.052;13.754;2022-11-21T02:16:59;98984.88;;;-0.13;85.73
75063;BME280;63981;51.052;13.754;2022-11-21T02:18:05;99084.34;;;0.44;85.96
75063;BME280;63981;51.052;13.754;2022-11-21T02:19:12;99079.94;;;0.46;86.29
75063;BME280;63981;51.052;13.754;2022-11-21T02:20:17;99082.41;;;0.49;86.28
75063;BME280;63981;51.052;13.754;2022-11-21T02:24:35;99073.69;;;0.50;86.35
75063;BME280;63981;51.052;13.754;2022-11-21T02:25:40;99030.78;;;0.24;86.46
75063;BME280;63981;51.052;13.754;2022-11-21T02:26:41;99072.63;;;0.55;86.53
75063;BME280;63981;51.052;13.754;2022-11-21T02:27:42;99073.09;;;0.64;86.51
75063;BME280;63981;51.052;13.754;2022-11-21T02:28:43;99040.34;;;0.42;85.99
75063;BME280;63981;51.052;13.754;2022-11-21T02:29:44;99072.25;;;0.63;86.20
75063;BME280;63981;51.052;13.754;2022-11-21T02:30:45;99076.50;;;0.66;86.35
75063;BME280;63981;51.052;13.754;2022-11-21T02:31:46;99065.75;;;0.73;86.37
75063;BME280;63981;51.052;13.754;2022-11-21T02:32:46;99071.31;;;0.66;85.48
75063;BME280;63981;51.052;13.754;2022-11-21T02:33:47;99072.19;;;0.65;85.57
75063;BME280;63981;51.052;13.754;2022-11-21T02:34:48;99081.16;;;0.57;86.94
75063;BME280;63981;51.052;13.754;2022-11-21T02:36:01;99079.47;;;0.56;86.67
75063;BME280;63981;51.052;13.754;2022-11-21T02:37:02;99068.06;;;0.61;86.66
75063;BME280;63981;51.052;13.754;2022-11-21T02:38:06;99074.84;;;0.63;86.32
75063;BME280;63981;51.052;13.754;2022-11-21T02:39:22;99065.31;;;0.64;86.55
75063;BME280;63981;51.052;13.754;2022-11-21T02:40:32;99008.75;;;0.34;87.23
75063;BME280;63981;51.052;13.754;2022-11-21T02:41:36;99047.81;;;0.69;86.65
75063;BME280;63981;51.052;13.754;2022-11-21T02:43:01;99054.75;;;0.68;86.59
75063;BME280;63981;51.052;13.754;2022-11-21T02:44:14;99062.47;;;0.70;86.94
75063;BME280;63981;51.052;13.754;2022-11-21T02:45:33;99060.25;;;0.81;86.44
75063;BME280;63981;51.052;13.754;2022-11-21T02:46:45;99042.16;;;0.79;86.49
75063;BME280;63981;51.052;13.754;2022-11-21T02:47:48;99050.06;;;0.95;86.79
75063;BME280;63981;51.052;13.754;2022-11-21T02:48:50;99045.22;;;0.87;86.73
75063;BME280;63981;51.052;13.754;2022-11-21T02:50:00;99046.44;;;0.80;86.95
75063;BME280;63981;51.052;13.754;2022-11-21T02:51:02;99033.47;;;0.80;87.19
75063;BME280;63981;51.052;13.754;2022-11-21T02:52:03;99041.03;;;0.85;87.20
75063;BME280;63981;51.052;13.754;2022-11-21T02:53:04;99044.75;;;0.98;86.52
75063;BME280;63981;51.052;13.754;2022-11-21T02:54:05;99041.03;;;0.85;87.02
75063;BME280;63981;51.052;13.754;2022-11-21T02:55:07;99046.13;;;0.86;87.63
75063;BME280;63981;51.052;13.754;2022-11-21T02:56:08;99047.41;;;0.97;87.45
75063;BME280;63981;51.052;13.754;2022-11-21T02:57:09;99041.66;;;0.90;88.35
75063;BME280;63981;51.052;13.754;2022-11-21T02:58:10;99042.75;;;1.03;88.27
75063;BME280;63981;51.052;13.754;2022-11-21T02:59:11;99028.47;;;0.95;88.14
75063;BME280;63981;51.052;13.754;2022-11-21T03:00:12;99025.81;;;0.96;87.59
75063;BME280;63981;51.052;13.754;2022-11-21T03:01:12;99041.88;;;1.04;87.25
75063;BME280;63981;51.052;13.754;2022-11-21T03:02:13;99041.38;;;0.96;87.60
75063;BME280;63981;51.052;13.754;2022-11-21T03:03:14;99042.22;;;0.97;87.25
75063;BME280;63981;51.052;13.754;2022-11-21T03:04:14;99042.75;;;1.03;87.53
75063;BME280;63981;51.052;13.754;2022-11-21T03:05:16;99039.31;;;1.03;88.22
75063;BME280;63981;51.052;13.754;2022-11-21T03:06:17;99041.16;;;1.01;86.73
75063;BME280;63981;51.052;13.754;2022-11-21T03:07:18;99036.34;;;0.93;87.75
75063;BME280;63981;51.052;13.754;2022-11-21T03:08:19;99032.94;;;0.91;88.06
75063;BME280;63981;51.052;13.754;2022-11-21T03:09:19;98988.03;;;0.72;88.48
75063;BME280;63981;51.052;13.754;2022-11-21T03:10:20;99026.84;;;1.11;88.06
75063;BME280;63981;51.052;13.754;2022-11-21T03:11:21;99027.06;;;1.06;87.60
75063;BME280;63981;51.052;13.754;2022-11-21T03:12:22;99028.53;;;1.12;87.95
75063;BME280;63981;51.052;13.754;2022-11-21T03:13:23;99028.25;;;1.18;87.11
75063;BME280;63981;51.052;13.754;2022-11-21T03:14:24;98946.13;;;0.62;87.75
75063;BME280;63981;51.052;13.754;2022-11-21T03:15:25;98944.31;;;0.45;87.57
75063;BME280;63981;51.052;13.754;2022-11-21T03:16:26;99027.69;;;1.11;87.60
75063;BME280;63981;51.052;13.754;2022-11-21T03:17:26;99023.72;;;1.04;87.77
75063;BME280;63981;51.052;13.754;2022-11-21T03:18:27;99022.16;;;1.19;86.98
75063;BME280;63981;51.052;13.754;2022-11-21T03:19:28;99032.88;;;1.11;88.27
75063;BME280;63981;51.052;13.754;2022-11-21T03:20:30;99005.56;;;1.04;87.09
75063;BME280;63981;51.052;13.754;2022-11-21T03:21:31;99029.75;;;1.05;88.30
75063;BME280;63981;51.052;13.754;2022-11-21T03:22:32;98970.38;;;0.61;88.17
75063;BME280;63981;51.052;13.754;2022-11-21T03:23:33;99019.09;;;0.92;88.36
75063;BME280;63981;51.052;13.754;2022-11-21T03:24:33;99025.50;;;1.02;88.27
75063;BME280;63981;51.052;13.754;2022-11-21T03:25:34;99035.06;;;1.02;88.02
75063;BME280;63981;51.052;13.754;2022-11-21T03:26:35;99023.00;;;1.01;88.88
75063;BME280;63981;51.052;13.754;2022-11-21T03:27:35;99026.66;;;0.97;89.31
75063;BME280;63981;51.052;13.754;2022-11-21T03:28:36;99027.84;;;0.89;89.50
75063;BME280;63981;51.052;13.754;2022-11-21T03:29:36;99024.81;;;0.99;89.23
75063;BME280;63981;51.052;13.754;2022-11-21T03:30:37;99014.88;;;0.89;90.33
75063;BME280;63981;51.052;13.754;2022-11-21T03:31:38;99022.53;;;0.93;89.36
75063;BME280;63981;51.052;13.754;2022-11-21T03:32:39;99010.59;;;1.07;89.34
75063;BME280;63981;51.052;13.754;2022-11-21T03:33:39;99018.66;;;1.01;90.04
75063;BME280;63981;51.052;13.754;2022-11-21T03:34:40;98977.59;;;0.73;90.15
75063;BME280;63981;51.052;13.754;2022-11-21T03:35:40;99008.50;;;0.97;89.74
75063;BME280;63981;51.052;13.754;2022-11-21T03:36:41;99004.91;;;0.99;90.20
75063;BME280;63981;51.052;13.754;2022-11-21T03:37:42;99007.44;;;1.01;89.77
75063;BME280;63981;51.052;13.754;2022-11-21T03:38:42;99012.47;;;1.04;90.44
75063;BME280;63981;51.052;13.754;2022-11-21T03:39:43;99007.41;;;1.20;90.05
75063;BME280;63981;51.052;13.754;2022-11-21T03:40:44;99027.78;;;1.27;89.94
75063;BME280;63981;51.052;13.754;2022-11-21T03:41:44;99004.66;;;1.23;89.12
75063;BME280;63981;51.052;13.754;2022-11-21T03:42:45;99003.34;;;1.14;89.93
75063;BME280;63981;51.052;13.754;2022-11-21T03:43:46;99008.78;;;1.27;89.76
75063;BME280;63981;51.052;13.754;2022-11-21T03:44:46;98945.53;;;0.93;89.24
75063;BME280;63981;51.052;13.754;2022-11-21T03:45:47;98962.97;;;1.08;88.40
75063;BME280;63981;51.052;13.754;2022-11-21T03:46:48;99004.53;;;1.43;90.10
75063;BME280;63981;51.052;13.754;2022-11-21T03:47:48;99000.66;;;1.34;88.77
75063;BME280;63981;51.052;13.754;2022-11-21T03:48:49;99001.16;;;1.24;89.18
75063;BME280;63981;51.052;13.754;2022-11-21T03:49:50;99003.31;;;1.33;88.90
75063;BME280;63981;51.052;13.754;2022-11-21T03:50:51;98991.78;;;1.38;89.17
75063;BME280;63981;51.052;13.754;2022-11-21T03:51:51;98994.94;;;1.45;88.71
75063;BME280;63981;51.052;13.754;2022-11-21T03:52:52;98974.09;;;1.46;89.49
75063;BME280;63981;51.052;13.754;2022-11-21T03:53:53;98993.09;;;1.47;88.04
75063;BME280;63981;51.052;13.754;2022-11-21T03:54:54;98988.50;;;1.52;88.18
75063;BME280;63981;51.052;13.754;2022-11-21T03:55:54;98993.25;;;1.61;88.66
75063;BME280;63981;51.052;13.754;2022-11-21T03:56:55;98986.59;;;1.56;87.62
75063;BME280;63981;51.052;13.754;2022-11-21T03:57:56;98993.25;;;1.61;87.77
75063;BME280;63981;51.052;13.754;2022-11-21T03:58:57;98992.88;;;1.69;86.82
75063;BME280;63981;51.052;13.754;2022-11-21T03:59:57;98993.56;;;1.72;88.46
75063;BME280;63981;51.052;13.754;2022-11-21T04:00:58;98986.53;;;1.74;88.13
75063;BME280;63981;51.052;13.754;2022-11-21T04:01:58;98985.16;;;1.67;87.33
75063;BME280;63981;51.052;13.754;2022-11-21T04:02:59;98943.09;;;1.43;87.98
75063;BME280;63981;51.052;13.754;2022-11-21T04:04:01;98991.56;;;1.77;87.20
75063;BME280;63981;51.052;13.754;2022-11-21T04:05:01;98986.38;;;1.77;87.46
75063;BME280;63981;51.052;13.754;2022-11-21T04:06:03;98907.13;;;1.18;87.49
75063;BME280;63981;51.052;13.754;2022-11-21T04:07:04;98956.00;;;1.45;87.87
75063;BME280;63981;51.052;13.754;2022-11-21T04:08:04;98951.72;;;1.61;88.50
75063;BME280;63981;51.052;13.754;2022-11-21T04:09:05;98981.94;;;1.80;88.62
75063;BME280;63981;51.052;13.754;2022-11-21T04:10:06;98984.47;;;1.81;87.68
75063;BME280;63981;51.052;13.754;2022-11-21T04:11:07;98979.25;;;1.81;87.15
75063;BME280;63981;51.052;13.754;2022-11-21T04:12:07;98982.94;;;1.77;88.02
75063;BME280;63981;51.052;13.754;2022-11-21T04:13:09;98980.94;;;1.82;87.83
75063;BME280;63981;51.052;13.754;2022-11-21T04:14:09;98979.56;;;1.92;87.55
75063;BME280;63981;51.052;13.754;2022-11-21T04:15:10;98976.75;;;1.80;86.82
75063;BME280;63981;51.052;13.754;2022-11-21T04:16:10;98980.13;;;1.64;86.62
75063;BME280;63981;51.052;13.754;2022-11-21T04:17:11;98975.84;;;1.46;87.98
75063;BME280;63981;51.052;13.754;2022-11-21T04:18:12;98895.44;;;1.10;88.04
75063;BME280;63981;51.052;13.754;2022-11-21T04:19:13;98979.00;;;1.70;87.90
75063;BME280;63981;51.052;13.754;2022-11-21T04:20:14;98976.69;;;1.64;87.44
75063;BME280;63981;51.052;13.754;2022-11-21T04:21:15;98975.75;;;1.65;88.46
75063;BME280;63981;51.052;13.754;2022-11-21T04:22:16;98982.47;;;1.52;87.61
75063;BME280;63981;51.052;13.754;2022-11-21T04:23:17;98974.31;;;1.59;89.12
75063;BME280;63981;51.052;13.754;2022-11-21T04:24:17;98979.44;;;1.61;89.57
75063;BME280;63981;51.052;13.754;2022-11-21T04:25:18;98981.13;;;1.62;88.40
75063;BME280;63981;51.052;13.754;2022-11-21T04:26:19;98975.31;;;1.57;89.24
75063;BME280;63981;51.052;13.754;2022-11-21T04:27:19;98868.59;;;0.75;88.91
75063;BME280;63981;51.052;13.754;2022-11-21T04:28:20;98969.25;;;1.56;88.98
75063;BME280;63981;51.052;13.754;2022-11-21T04:29:21;98903.28;;;1.26;88.76
75063;BME280;63981;51.052;13.754;2022-11-21T04:30:22;98812.53;;;0.72;88.87
75063;BME280;63981;51.052;13.754;2022-11-21T04:31:22;98975.75;;;1.65;88.85
75063;BME280;63981;51.052;13.754;2022-11-21T04:32:23;98970.19;;;1.55;87.85
75063;BME280;63981;51.052;13.754;2022-11-21T04:33:24;98922.97;;;1.30;88.70
75063;BME280;63981;51.052;13.754;2022-11-21T04:34:24;98891.22;;;1.07;88.86
75063;BME280;63981;51.052;13.754;2022-11-21T04:35:25;98958.28;;;1.51;89.59
75063;BME280;63981;51.052;13.754;2022-11-21T04:36:27;98918.19;;;1.22;89.43
75063;BME280;63981;51.052;13.754;2022-11-21T04:37:27;98957.34;;;1.52;89.25
75063;BME280;63981;51.052;13.754;2022-11-21T04:38:28;98961.47;;;1.56;89.48
75063;BME280;63981;51.052;13.754;2022-11-21T04:39:29;98814.41;;;0.51;88.66
75063;BME280;63981;51.052;13.754;2022-11-21T04:40:29;98892.91;;;1.08;89.42
75063;BME280;63981;51.052;13.754;2022-11-21T04:41:30;98956.59;;;1.50;89.75
75063;BME280;63981;51.052;13.754;2022-11-21T04:42:31;98944.59;;;1.47;89.99
75063;BME280;63981;51.052;13.754;2022-11-21T04:43:32;98933.84;;;1.38;88.85
75063;BME280;63981;51.052;13.754;2022-11-21T04:44:33;98905.13;;;1.24;88.89
75063;BME280;63981;51.052;13.754;2022-11-21T04:45:33;98951.09;;;1.56;89.61
75063;BME280;63981;51.052;13.754;2022-11-21T04:46:34;98938.81;;;1.60;89.00
75063;BME280;63981;51.052;13.754;2022-11-21T04:47:35;98948.47;;;1.56;87.83
75063;BME280;63981;51.052;13.754;2022-11-21T04:48:37;98877.53;;;1.04;88.49
75063;BME280;63981;51.052;13.754;2022-11-21T04:49:37;98953.75;;;1.55;88.55
75063;BME280;63981;51.052;13.754;2022-11-21T04:50:38;98953.91;;;1.52;89.27
75063;BME280;63981;51.052;13.754;2022-11-21T04:51:38;98954.59;;;1.55;88.02
75063;BME280;63981;51.052;13.754;2022-11-21T04:52:39;98953.69;;;1.56;87.62
75063;BME280;63981;51.052;13.754;2022-11-21T04:53:40;98944.16;;;1.57;88.70
75063;BME280;63981;51.052;13.754;2022-11-21T04:54:41;98947.03;;;1.51;88.80
75063;BME280;63981;51.052;13.754;2022-11-21T04:55:42;98951.56;;;1.47;89.22
75063;BME280;63981;51.052;13.754;2022-11-21T04:56:42;98927.81;;;1.37;89.38
75063;BME280;63981;51.052;13.754;2022-11-21T04:57:43;98952.84;;;1.56;87.83
75063;BME280;63981;51.052;13.754;2022-11-21T04:58:44;98947.81;;;1.53;89.23
75063;BME280;63981;51.052;13.754;2022-11-21T04:59:45;98950.25;;;1.56;87.87
75063;BME280;63981;51.052;13.754;2022-11-21T05:00:45;98944.22;;;1.55;87.60
75063;BME280;63981;51.052;13.754;2022-11-21T05:01:46;98891.47;;;1.37;87.95
75063;BME280;63981;51.052;13.754;2022-11-21T05:02:47;98911.00;;;1.62;86.54
75063;BME280;63981;51.052;13.754;2022-11-21T05:03:47;98945.66;;;1.78;86.54
75063;BME280;63981;51.052;13.754;2022-11-21T05:04:49;98950.63;;;1.83;87.29
75063;BME280;63981;51.052;13.754;2022-11-21T05:05:50;98946.28;;;1.83;88.54
75063;BME280;63981;51.052;13.754;2022-11-21T05:06:50;98903.03;;;1.65;86.51
75063;BME280;63981;51.052;13.754;2022-11-21T05:07:51;98941.13;;;1.82;86.44
75063;BME280;63981;51.052;13.754;2022-11-21T05:08:52;98948.78;;;1.67;88.35
75063;BME280;63981;51.052;13.754;2022-11-21T05:09:52;98949.19;;;1.60;87.22
75063;BME280;63981;51.052;13.754;2022-11-21T05:10:53;98942.44;;;1.56;88.79
75063;BME280;63981;51.052;13.754;2022-11-21T05:12:12;98894.06;;;1.37;89.30
75063;BME280;63981;51.052;13.754;2022-11-21T05:13:31;98948.88;;;1.66;88.18
75063;BME280;63981;51.052;13.754;2022-11-21T05:14:32;98942.63;;;1.53;88.41
75063;BME280;63981;51.052;13.754;2022-11-21T05:15:33;98948.19;;;1.62;87.59
75063;BME280;63981;51.052;13.754;2022-11-21T05:16:33;98946.44;;;1.63;88.47
75063;BME280;63981;51.052;13.754;2022-11-21T05:17:34;98890.38;;;1.24;88.33
75063;BME280;63981;51.052;13.754;2022-11-21T05:18:35;98938.81;;;1.60;89.35
75063;BME280;63981;51.052;13.754;2022-11-21T05:19:36;98941.25;;;1.63;87.50
75063;BME280;63981;51.052;13.754;2022-11-21T05:20:37;98944.69;;;1.63;87.42
75063;BME280;63981;51.052;13.754;2022-11-21T05:21:38;98945.59;;;1.62;88.28
75063;BME280;63981;51.052;13.754;2022-11-21T05:22:39;98956.06;;;1.61;87.48
75063;BME280;63981;51.052;13.754;2022-11-21T05:23:39;98947.19;;;1.65;88.01
75063;BME280;63981;51.052;13.754;2022-11-21T05:24:40;98939.13;;;1.71;89.29
75063;BME280;63981;51.052;13.754;2022-11-21T05:25:40;98949.50;;;2.04;88.75
75063;BME280;63981;51.052;13.754;2022-11-21T05:26:41;98950.06;;;2.11;85.96
75063;BME280;63981;51.052;13.754;2022-11-21T05:27:42;98952.50;;;2.29;88.40
75063;BME280;63981;51.052;13.754;2022-11-21T05:28:43;98960.88;;;2.19;86.68
75063;BME280;63981;51.052;13.754;2022-11-21T05:29:43;98935.56;;;1.89;88.04
75063;BME280;63981;51.052;13.754;2022-11-21T05:30:45;98950.72;;;2.14;87.16
75063;BME280;63981;51.052;13.754;2022-11-21T05:31:45;98949.34;;;2.07;88.67
75063;BME280;63981;51.052;13.754;2022-11-21T05:32:46;98953.06;;;1.86;88.20